sensor_id;sensor_type;location;lat;lon;timestamp;temperature;humidity
68511;SHT31;55512;50.102;19.958;2022-12-07T00:01:30;4.76;75.94
68511;SHT31;55512;50.102;19.958;2022-12-07T00:03:59;4.75;75.98
68511;SHT31;55512;50.102;19.958;2022-12-07T00:06:34;4.76;76.00
68511;SHT31;55512;50.102;19.958;2022-12-07T00:09:12;4.78;76.00
68511;SHT31;55512;50.102;19.958;2022-12-07T00:11:40;4.80;76.00
68511;SHT31;55512;50.102;19.958;2022-12-07T00:14:09;4.69;76.13
68511;SHT31;55512;50.102;19.958;2022-12-07T00:16:38;4.47;76.74
68511;SHT31;55512;50.102;19.958;2022-12-07T00:19:04;4.44;76.98
68511;SHT31;55512;50.102;19.958;2022-12-07T00:21:34;4.43;77.08
68511;SHT31;55512;50.102;19.958;2022-12-07T00:24:01;4.45;77.12
68511;SHT31;55512;50.102;19.958;2022-12-07T00:26:32;4.45;77.19
68511;SHT31;55512;50.102;19.958;2022-12-07T00:29:02;4.44;77.20
68511;SHT31;55512;50.102;19.958;2022-12-07T00:31:33;4.42;77.30
68511;SHT31;55512;50.102;19.958;2022-12-07T00:34:04;4.40;77.32
68511;SHT31;55512;50.102;19.958;2022-12-07T00:36:31;4.39;77.40
68511;SHT31;55512;50.102;19.958;2022-12-07T00:38:58;4.39;77.43
68511;SHT31;55512;50.102;19.958;2022-12-07T00:41:25;4.39;77.49
68511;SHT31;55512;50.102;19.958;2022-12-07T00:43:53;4.39;77.50
68511;SHT31;55512;50.102;19.958;2022-12-07T00:46:20;4.38;77.50
68511;SHT31;55512;50.102;19.958;2022-12-07T00:48:46;4.37;77.52
68511;SHT31;55512;50.102;19.958;2022-12-07T00:51:14;4.36;77.58
68511;SHT31;55512;50.102;19.958;2022-12-07T00:53:42;4.38;77.59
68511;SHT31;55512;50.102;19.958;2022-12-07T00:56:08;4.41;77.59
68511;SHT31;55512;50.102;19.958;2022-12-07T00:58:39;4.43;77.51
68511;SHT31;55512;50.102;19.958;2022-12-07T01:01:05;4.44;77.50
68511;SHT31;55512;50.102;19.958;2022-12-07T01:03:33;4.45;77.50
68511;SHT31;55512;50.102;19.958;2022-12-07T01:05:58;4.44;77.50
68511;SHT31;55512;50.102;19.958;2022-12-07T01:08:25;4.43;77.50
68511;SHT31;55512;50.102;19.958;2022-12-07T01:11:02;4.43;77.52
68511;SHT31;55512;50.102;19.958;2022-12-07T01:13:32;4.45;77.52
68511;SHT31;55512;50.102;19.958;2022-12-07T01:16:00;4.48;77.50
68511;SHT31;55512;50.102;19.958;2022-12-07T01:18:30;4.68;77.00
68511;SHT31;55512;50.102;19.958;2022-12-07T01:21:05;4.62;77.00
68511;SHT31;55512;50.102;19.958;2022-12-07T01:23:39;4.72;76.74
68511;SHT31;55512;50.102;19.958;2022-12-07T01:26:07;4.74;76.57
68511;SHT31;55512;50.102;19.958;2022-12-07T01:28:37;4.70;76.84
68511;SHT31;55512;50.102;19.958;2022-12-07T01:31:05;4.83;76.41
68511;SHT31;55512;50.102;19.958;2022-12-07T01:33:40;4.70;76.81
68511;SHT31;55512;50.102;19.958;2022-12-07T01:36:15;4.62;77.00
68511;SHT31;55512;50.102;19.958;2022-12-07T01:38:45;4.59;77.19
68511;SHT31;55512;50.102;19.958;2022-12-07T01:41:12;4.58;77.21
68511;SHT31;55512;50.102;19.958;2022-12-07T01:46:42;4.53;77.30
68511;SHT31;55512;50.102;19.958;2022-12-07T01:49:17;4.52;77.31
68511;SHT31;55512;50.102;19.958;2022-12-07T01:51:50;4.48;77.33
68511;SHT31;55512;50.102;19.958;2022-12-07T01:54:23;4.47;77.40
68511;SHT31;55512;50.102;19.958;2022-12-07T01:56:51;4.50;77.40
68511;SHT31;55512;50.102;19.958;2022-12-07T01:59:21;4.48;77.36
68511;SHT31;55512;50.102;19.958;2022-12-07T02:01:51;4.49;77.35
68511;SHT31;55512;50.102;19.958;2022-12-07T02:04:19;4.49;77.32
68511;SHT31;55512;50.102;19.958;2022-12-07T02:06:46;4.50;77.30
68511;SHT31;55512;50.102;19.958;2022-12-07T02:09:12;4.49;77.29
68511;SHT31;55512;50.102;19.958;2022-12-07T02:11:38;4.49;77.24
68511;SHT31;55512;50.102;19.958;2022-12-07T02:14:04;4.48;77.21
68511;SHT31;55512;50.102;19.958;2022-12-07T02:16:39;4.45;77.20
68511;SHT31;55512;50.102;19.958;2022-12-07T02:25:39;4.40;77.12
68511;SHT31;55512;50.102;19.958;2022-12-07T02:28:35;4.38;77.19
68511;SHT31;55512;50.102;19.958;2022-12-07T02:31:12;4.34;77.20
68511;SHT31;55512;50.102;19.958;2022-12-07T02:33:47;4.33;77.21
68511;SHT31;55512;50.102;19.958;2022-12-07T02:36:25;4.33;77.25
68511;SHT31;55512;50.102;19.958;2022-12-07T02:39:00;4.33;77.30
68511;SHT31;55512;50.102;19.958;2022-12-07T02:41:37;4.33;77.30
68511;SHT31;55512;50.102;19.958;2022-12-07T02:44:12;4.31;77.30
68511;SHT31;55512;50.102;19.958;2022-12-07T02:46:48;4.31;77.29
68511;SHT31;55512;50.102;19.958;2022-12-07T02:49:21;4.30;77.28
68511;SHT31;55512;50.102;19.958;2022-12-07T02:51:49;4.29;77.30
68511;SHT31;55512;50.102;19.958;2022-12-07T02:54:16;4.29;77.30
68511;SHT31;55512;50.102;19.958;2022-12-07T03:10:24;4.38;77.20
68511;SHT31;55512;50.102;19.958;2022-12-07T03:13:03;4.38;77.14
68511;SHT31;55512;50.102;19.958;2022-12-07T03:15:42;4.37;77.10
68511;SHT31;55512;50.102;19.958;2022-12-07T03:18:25;4.38;77.10
68511;SHT31;55512;50.102;19.958;2022-12-07T03:20:56;4.37;77.09
68511;SHT31;55512;50.102;19.958;2022-12-07T03:23:29;4.38;77.06
68511;SHT31;55512;50.102;19.958;2022-12-07T03:26:00;4.39;77.01
68511;SHT31;55512;50.102;19.958;2022-12-07T03:28:29;4.39;76.94
68511;SHT31;55512;50.102;19.958;2022-12-07T03:33:36;4.38;77.00
68511;SHT31;55512;50.102;19.958;2022-12-07T03:36:22;4.39;77.00
68511;SHT31;55512;50.102;19.958;2022-12-07T03:39:11;4.40;77.00
68511;SHT31;55512;50.102;19.958;2022-12-07T03:41:44;4.40;77.00
68511;SHT31;55512;50.102;19.958;2022-12-07T03:44:10;4.40;77.00
68511;SHT31;55512;50.102;19.958;2022-12-07T03:46:45;4.40;77.00
68511;SHT31;55512;50.102;19.958;2022-12-07T03:52:02;4.37;77.00
68511;SHT31;55512;50.102;19.958;2022-12-07T03:54:42;4.37;77.00
68511;SHT31;55512;50.102;19.958;2022-12-07T03:57:17;4.35;77.01
68511;SHT31;55512;50.102;19.958;2022-12-07T03:59:44;4.34;77.06
68511;SHT31;55512;50.102;19.958;2022-12-07T04:02:11;4.32;77.10
68511;SHT31;55512;50.102;19.958;2022-12-07T04:04:39;4.32;77.11
68511;SHT31;55512;50.102;19.958;2022-12-07T04:07:05;4.30;77.14
68511;SHT31;55512;50.102;19.958;2022-12-07T04:09:30;4.28;77.20
68511;SHT31;55512;50.102;19.958;2022-12-07T04:11:56;4.30;77.21
68511;SHT31;55512;50.102;19.958;2022-12-07T04:14:21;4.28;77.22
68511;SHT31;55512;50.102;19.958;2022-12-07T04:16:51;4.27;77.30
68511;SHT31;55512;50.102;19.958;2022-12-07T04:19:23;4.26;77.36
68511;SHT31;55512;50.102;19.958;2022-12-07T04:21:52;4.28;77.40
68511;SHT31;55512;50.102;19.958;2022-12-07T04:24:18;4.28;77.41
68511;SHT31;55512;50.102;19.958;2022-12-07T04:26:45;4.26;77.48
68511;SHT31;55512;50.102;19.958;2022-12-07T04:29:12;4.26;77.51
68511;SHT31;55512;50.102;19.958;2022-12-07T04:31:38;4.23;77.54
68511;SHT31;55512;50.102;19.958;2022-12-07T04:34:04;4.19;77.60
68511;SHT31;55512;50.102;19.958;2022-12-07T04:36:32;4.16;77.69
68511;SHT31;55512;50.102;19.958;2022-12-07T04:38:58;4.17;77.78
68511;SHT31;55512;50.102;19.958;2022-12-07T04:41:24;4.17;77.80
68511;SHT31;55512;50.102;19.958;2022-12-07T04:43:54;4.18;77.82
68511;SHT31;55512;50.102;19.958;2022-12-07T04:46:27;4.16;77.89
68511;SHT31;55512;50.102;19.958;2022-12-07T04:48:55;4.13;77.93
68511;SHT31;55512;50.102;19.958;2022-12-07T04:51:22;4.11;78.00
68511;SHT31;55512;50.102;19.958;2022-12-07T04:53:51;4.11;78.08
68511;SHT31;55512;50.102;19.958;2022-12-07T04:56:17;4.13;78.10
68511;SHT31;55512;50.102;19.958;2022-12-07T04:58:44;4.15;78.08
68511;SHT31;55512;50.102;19.958;2022-12-07T05:01:12;4.16;78.03
68511;SHT31;55512;50.102;19.958;2022-12-07T05:03:40;4.16;78.02
68511;SHT31;55512;50.102;19.958;2022-12-07T05:06:05;4.17;78.01
68511;SHT31;55512;50.102;19.958;2022-12-07T05:08:32;4.14;78.00
68511;SHT31;55512;50.102;19.958;2022-12-07T05:10:59;4.14;78.00
68511;SHT31;55512;50.102;19.958;2022-12-07T05:13:27;4.14;77.96
68511;SHT31;55512;50.102;19.958;2022-12-07T05:15:52;4.09;77.81
68511;SHT31;55512;50.102;19.958;2022-12-07T05:18:18;4.06;77.76
68511;SHT31;55512;50.102;19.958;2022-12-07T05:20:43;4.02;77.70
68511;SHT31;55512;50.102;19.958;2022-12-07T05:23:10;3.95;77.61
68511;SHT31;55512;50.102;19.958;2022-12-07T05:25:36;3.91;77.67
68511;SHT31;55512;50.102;19.958;2022-12-07T05:28:02;3.88;77.70
68511;SHT31;55512;50.102;19.958;2022-12-07T05:30:29;3.87;77.71
68511;SHT31;55512;50.102;19.958;2022-12-07T05:32:54;3.85;77.79
68511;SHT31;55512;50.102;19.958;2022-12-07T05:35:20;3.88;77.81
68511;SHT31;55512;50.102;19.958;2022-12-07T05:37:46;3.92;77.86
68511;SHT31;55512;50.102;19.958;2022-12-07T05:40:12;3.97;77.80
68511;SHT31;55512;50.102;19.958;2022-12-07T05:42:39;3.96;77.78
68511;SHT31;55512;50.102;19.958;2022-12-07T05:45:05;3.97;77.74
68511;SHT31;55512;50.102;19.958;2022-12-07T05:47:32;3.99;77.78
68511;SHT31;55512;50.102;19.958;2022-12-07T05:49:58;3.98;77.75
68511;SHT31;55512;50.102;19.958;2022-12-07T05:52:23;3.99;77.80
68511;SHT31;55512;50.102;19.958;2022-12-07T05:54:49;4.03;77.80
68511;SHT31;55512;50.102;19.958;2022-12-07T05:57:15;4.04;77.80
68511;SHT31;55512;50.102;19.958;2022-12-07T05:59:41;4.06;77.81
68511;SHT31;55512;50.102;19.958;2022-12-07T06:02:10;4.12;77.80
68511;SHT31;55512;50.102;19.958;2022-12-07T06:04:40;4.14;77.79
68511;SHT31;55512;50.102;19.958;2022-12-07T06:07:10;4.18;77.80
68511;SHT31;55512;50.102;19.958;2022-12-07T06:09:37;4.20;77.79
68511;SHT31;55512;50.102;19.958;2022-12-07T06:12:03;4.24;77.74
68511;SHT31;55512;50.102;19.958;2022-12-07T06:14:49;4.24;77.70
68511;SHT31;55512;50.102;19.958;2022-12-07T06:17:15;4.24;77.73
68511;SHT31;55512;50.102;19.958;2022-12-07T06:19:41;4.24;77.80
68511;SHT31;55512;50.102;19.958;2022-12-07T06:22:07;4.27;77.79
68511;SHT31;55512;50.102;19.958;2022-12-07T06:24:34;4.29;77.79
68511;SHT31;55512;50.102;19.958;2022-12-07T06:27:00;4.30;77.67
68511;SHT31;55512;50.102;19.958;2022-12-07T06:29:26;4.28;77.64
68511;SHT31;55512;50.102;19.958;2022-12-07T06:31:51;4.29;77.70
68511;SHT31;55512;50.102;19.958;2022-12-07T06:34:17;4.31;77.68
68511;SHT31;55512;50.102;19.958;2022-12-07T06:36:46;4.30;77.58
68511;SHT31;55512;50.102;19.958;2022-12-07T06:39:16;4.28;77.58
68511;SHT31;55512;50.102;19.958;2022-12-07T06:41:43;4.29;77.60
68511;SHT31;55512;50.102;19.958;2022-12-07T06:44:10;4.26;77.57
68511;SHT31;55512;50.102;19.958;2022-12-07T06:46:35;4.26;77.60
68511;SHT31;55512;50.102;19.958;2022-12-07T06:49:01;4.31;77.60
68511;SHT31;55512;50.102;19.958;2022-12-07T06:51:29;4.32;77.59
68511;SHT31;55512;50.102;19.958;2022-12-07T06:53:55;4.34;77.58
68511;SHT31;55512;50.102;19.958;2022-12-07T06:56:20;4.33;77.56
68511;SHT31;55512;50.102;19.958;2022-12-07T06:58:46;4.32;77.50
68511;SHT31;55512;50.102;19.958;2022-12-07T07:01:16;4.32;77.47
68511;SHT31;55512;50.102;19.958;2022-12-07T07:03:43;4.32;77.40
68511;SHT31;55512;50.102;19.958;2022-12-07T07:06:10;4.36;77.39
68511;SHT31;55512;50.102;19.958;2022-12-07T07:08:38;4.40;77.36
68511;SHT31;55512;50.102;19.958;2022-12-07T07:11:04;4.39;77.29
68511;SHT31;55512;50.102;19.958;2022-12-07T07:13:31;4.40;77.24
68511;SHT31;55512;50.102;19.958;2022-12-07T07:15:57;4.39;77.19
68511;SHT31;55512;50.102;19.958;2022-12-07T07:18:23;4.34;77.06
68511;SHT31;55512;50.102;19.958;2022-12-07T07:20:52;4.25;77.04
68511;SHT31;55512;50.102;19.958;2022-12-07T07:23:19;4.22;77.10
68511;SHT31;55512;50.102;19.958;2022-12-07T07:25:46;4.18;77.11
68511;SHT31;55512;50.102;19.958;2022-12-07T07:28:12;4.11;77.12
68511;SHT31;55512;50.102;19.958;2022-12-07T07:30:39;4.06;77.18
68511;SHT31;55512;50.102;19.958;2022-12-07T07:33:05;4.05;77.28
68511;SHT31;55512;50.102;19.958;2022-12-07T07:35:32;4.07;77.30
68511;SHT31;55512;50.102;19.958;2022-12-07T07:37:59;4.08;77.31
68511;SHT31;55512;50.102;19.958;2022-12-07T07:40:26;4.04;77.32
68511;SHT31;55512;50.102;19.958;2022-12-07T07:42:54;4.04;77.38
68511;SHT31;55512;50.102;19.958;2022-12-07T07:45:21;4.07;77.42
68511;SHT31;55512;50.102;19.958;2022-12-07T07:47:48;4.11;77.46
68511;SHT31;55512;50.102;19.958;2022-12-07T07:50:15;4.16;77.46
68511;SHT31;55512;50.102;19.958;2022-12-07T07:52:41;4.19;77.46
68511;SHT31;55512;50.102;19.958;2022-12-07T07:55:08;4.22;77.44
68511;SHT31;55512;50.102;19.958;2022-12-07T07:57:37;4.24;77.43
68511;SHT31;55512;50.102;19.958;2022-12-07T08:00:06;4.28;77.45
68511;SHT31;55512;50.102;19.958;2022-12-07T08:02:35;4.31;77.45
68511;SHT31;55512;50.102;19.958;2022-12-07T08:05:00;4.29;77.40
68511;SHT31;55512;50.102;19.958;2022-12-07T08:07:27;4.32;77.40
68511;SHT31;55512;50.102;19.958;2022-12-07T08:09:53;4.34;77.44
68511;SHT31;55512;50.102;19.958;2022-12-07T08:12:19;4.34;77.40
68511;SHT31;55512;50.102;19.958;2022-12-07T08:14:44;4.35;77.45
68511;SHT31;55512;50.102;19.958;2022-12-07T08:17:10;4.34;77.50
68511;SHT31;55512;50.102;19.958;2022-12-07T08:19:36;4.32;77.50
68511;SHT31;55512;50.102;19.958;2022-12-07T08:22:01;4.27;77.53
68511;SHT31;55512;50.102;19.958;2022-12-07T08:24:27;4.24;77.60
68511;SHT31;55512;50.102;19.958;2022-12-07T08:26:52;4.26;77.60
68511;SHT31;55512;50.102;19.958;2022-12-07T08:29:18;4.26;77.60
68511;SHT31;55512;50.102;19.958;2022-12-07T08:31:44;4.25;77.60
68511;SHT31;55512;50.102;19.958;2022-12-07T08:34:10;4.25;77.60
68511;SHT31;55512;50.102;19.958;2022-12-07T08:36:37;4.27;77.64
68511;SHT31;55512;50.102;19.958;2022-12-07T08:39:03;4.28;77.64
68511;SHT31;55512;50.102;19.958;2022-12-07T08:41:28;4.31;77.68
68511;SHT31;55512;50.102;19.958;2022-12-07T08:43:54;4.31;77.69
68511;SHT31;55512;50.102;19.958;2022-12-07T08:46:34;4.34;77.68
68511;SHT31;55512;50.102;19.958;2022-12-07T08:49:13;4.36;77.68
68511;SHT31;55512;50.102;19.958;2022-12-07T08:51:45;4.37;77.64
68511;SHT31;55512;50.102;19.958;2022-12-07T08:54:12;4.33;77.62
68511;SHT31;55512;50.102;19.958;2022-12-07T08:56:42;4.33;77.65
68511;SHT31;55512;50.102;19.958;2022-12-07T08:59:10;4.35;77.60
68511;SHT31;55512;50.102;19.958;2022-12-07T09:01:41;4.34;77.60
68511;SHT31;55512;50.102;19.958;2022-12-07T09:04:06;4.36;77.60
68511;SHT31;55512;50.102;19.958;2022-12-07T09:06:32;4.38;77.60
68511;SHT31;55512;50.102;19.958;2022-12-07T09:08:58;4.41;77.60
68511;SHT31;55512;50.102;19.958;2022-12-07T09:11:26;4.42;77.60
68511;SHT31;55512;50.102;19.958;2022-12-07T09:13:52;4.44;77.58
68511;SHT31;55512;50.102;19.958;2022-12-07T09:16:18;4.47;77.51
68511;SHT31;55512;50.102;19.958;2022-12-07T09:18:43;4.51;77.50
68511;SHT31;55512;50.102;19.958;2022-12-07T09:21:09;4.53;77.50
68511;SHT31;55512;50.102;19.958;2022-12-07T09:23:35;4.55;77.44
68511;SHT31;55512;50.102;19.958;2022-12-07T09:26:03;4.57;77.34
68511;SHT31;55512;50.102;19.958;2022-12-07T09:28:30;4.59;77.29
68511;SHT31;55512;50.102;19.958;2022-12-07T09:30:56;4.61;77.24
68511;SHT31;55512;50.102;19.958;2022-12-07T09:33:22;4.61;77.20
68511;SHT31;55512;50.102;19.958;2022-12-07T09:35:47;4.60;77.20
68511;SHT31;55512;50.102;19.958;2022-12-07T09:38:15;4.63;77.25
68511;SHT31;55512;50.102;19.958;2022-12-07T09:40:42;4.64;77.20
68511;SHT31;55512;50.102;19.958;2022-12-07T09:43:12;4.68;77.20
68511;SHT31;55512;50.102;19.958;2022-12-07T09:45:51;4.72;77.14
68511;SHT31;55512;50.102;19.958;2022-12-07T09:48:20;4.75;77.10
68511;SHT31;55512;50.102;19.958;2022-12-07T09:51:00;4.77;77.10
68511;SHT31;55512;50.102;19.958;2022-12-07T09:53:27;4.74;77.07
68511;SHT31;55512;50.102;19.958;2022-12-07T09:55:58;4.72;77.09
68511;SHT31;55512;50.102;19.958;2022-12-07T09:58:26;4.71;77.10
68511;SHT31;55512;50.102;19.958;2022-12-07T10:01:14;4.69;77.10
68511;SHT31;55512;50.102;19.958;2022-12-07T10:03:40;4.71;77.10
68511;SHT31;55512;50.102;19.958;2022-12-07T10:06:30;4.72;77.10
68511;SHT31;55512;50.102;19.958;2022-12-07T10:08:56;4.72;77.06
68511;SHT31;55512;50.102;19.958;2022-12-07T10:11:21;4.70;77.02
68511;SHT31;55512;50.102;19.958;2022-12-07T10:13:48;4.75;77.08
68511;SHT31;55512;50.102;19.958;2022-12-07T10:18:50;4.82;76.85
68511;SHT31;55512;50.102;19.958;2022-12-07T10:21:18;4.82;76.88
68511;SHT31;55512;50.102;19.958;2022-12-07T10:29:22;4.90;76.90
68511;SHT31;55512;50.102;19.958;2022-12-07T10:34:41;4.95;76.87
68511;SHT31;55512;50.102;19.958;2022-12-07T10:37:16;4.95;76.80
68511;SHT31;55512;50.102;19.958;2022-12-07T10:39:49;4.97;76.80
68511;SHT31;55512;50.102;19.958;2022-12-07T10:42:19;5.00;76.80
68511;SHT31;55512;50.102;19.958;2022-12-07T10:47:49;5.02;76.80
68511;SHT31;55512;50.102;19.958;2022-12-07T10:53:36;5.11;76.80
68511;SHT31;55512;50.102;19.958;2022-12-07T11:05:05;5.26;76.80
68511;SHT31;55512;50.102;19.958;2022-12-07T11:08:25;5.28;76.80
68511;SHT31;55512;50.102;19.958;2022-12-07T11:11:16;5.31;76.65
68511;SHT31;55512;50.102;19.958;2022-12-07T11:13:53;5.34;76.60
68511;SHT31;55512;50.102;19.958;2022-12-07T11:22:13;5.38;76.09
68511;SHT31;55512;50.102;19.958;2022-12-07T11:25:11;5.38;76.10
68511;SHT31;55512;50.102;19.958;2022-12-07T11:36:38;5.43;75.81
68511;SHT31;55512;50.102;19.958;2022-12-07T11:39:20;5.49;75.71
68511;SHT31;55512;50.102;19.958;2022-12-07T11:42:01;5.53;75.50
68511;SHT31;55512;50.102;19.958;2022-12-07T11:44:47;5.56;75.40
68511;SHT31;55512;50.102;19.958;2022-12-07T11:47:22;5.60;75.40
68511;SHT31;55512;50.102;19.958;2022-12-07T11:52:45;5.64;75.29
68511;SHT31;55512;50.102;19.958;2022-12-07T11:55:19;5.66;75.22
68511;SHT31;55512;50.102;19.958;2022-12-07T12:00:47;5.72;75.06
68511;SHT31;55512;50.102;19.958;2022-12-07T12:03:26;5.69;74.72
68511;SHT31;55512;50.102;19.958;2022-12-07T12:05:58;5.67;74.60
68511;SHT31;55512;50.102;19.958;2022-12-07T12:08:34;5.68;74.53
68511;SHT31;55512;50.102;19.958;2022-12-07T12:22:52;5.84;73.97
68511;SHT31;55512;50.102;19.958;2022-12-07T12:25:26;5.88;73.84
68511;SHT31;55512;50.102;19.958;2022-12-07T12:27:59;5.91;73.72
68511;SHT31;55512;50.102;19.958;2022-12-07T12:30:35;5.95;73.49
68511;SHT31;55512;50.102;19.958;2022-12-07T12:39:13;6.03;72.37
68511;SHT31;55512;50.102;19.958;2022-12-07T12:46:59;6.06;72.22
68511;SHT31;55512;50.102;19.958;2022-12-07T12:49:39;6.07;72.13
68511;SHT31;55512;50.102;19.958;2022-12-07T12:54:57;6.04;71.63
68511;SHT31;55512;50.102;19.958;2022-12-07T12:57:38;6.02;71.68
68511;SHT31;55512;50.102;19.958;2022-12-07T13:00:18;6.01;71.66
68511;SHT31;55512;50.102;19.958;2022-12-07T13:05:27;6.03;71.50
68511;SHT31;55512;50.102;19.958;2022-12-07T13:08:13;6.02;71.26
68511;SHT31;55512;50.102;19.958;2022-12-07T13:10:50;6.03;70.95
68511;SHT31;55512;50.102;19.958;2022-12-07T13:26:27;6.18;68.90
68511;SHT31;55512;50.102;19.958;2022-12-07T13:31:38;6.14;68.50
68511;SHT31;55512;50.102;19.958;2022-12-07T13:34:28;6.09;67.97
68511;SHT31;55512;50.102;19.958;2022-12-07T13:36:57;6.08;67.98
68511;SHT31;55512;50.102;19.958;2022-12-07T13:39:33;6.07;68.08
68511;SHT31;55512;50.102;19.958;2022-12-07T13:42:06;6.07;68.02
68511;SHT31;55512;50.102;19.958;2022-12-07T13:44:43;6.05;67.69
68511;SHT31;55512;50.102;19.958;2022-12-07T13:50:21;6.05;67.59
68511;SHT31;55512;50.102;19.958;2022-12-07T13:52:47;6.03;67.65
68511;SHT31;55512;50.102;19.958;2022-12-07T13:55:14;6.03;67.44
68511;SHT31;55512;50.102;19.958;2022-12-07T13:57:42;6.01;67.37
68511;SHT31;55512;50.102;19.958;2022-12-07T14:00:21;5.97;67.21
68511;SHT31;55512;50.102;19.958;2022-12-07T14:05:31;5.98;67.57
68511;SHT31;55512;50.102;19.958;2022-12-07T14:08:20;6.00;67.51
68511;SHT31;55512;50.102;19.958;2022-12-07T14:13:27;6.00;67.50
68511;SHT31;55512;50.102;19.958;2022-12-07T14:16:03;5.99;67.66
68511;SHT31;55512;50.102;19.958;2022-12-07T14:18:53;5.95;67.73
68511;SHT31;55512;50.102;19.958;2022-12-07T14:21:20;5.92;67.86
68511;SHT31;55512;50.102;19.958;2022-12-07T14:24:02;5.89;67.91
68511;SHT31;55512;50.102;19.958;2022-12-07T14:26:34;5.89;67.96
68511;SHT31;55512;50.102;19.958;2022-12-07T14:29:19;5.87;67.79
68511;SHT31;55512;50.102;19.958;2022-12-07T14:31:51;5.82;67.70
68511;SHT31;55512;50.102;19.958;2022-12-07T14:34:21;5.82;67.64
68511;SHT31;55512;50.102;19.958;2022-12-07T14:36:48;5.80;67.52
68511;SHT31;55512;50.102;19.958;2022-12-07T14:39:14;5.77;67.43
68511;SHT31;55512;50.102;19.958;2022-12-07T14:41:40;5.73;67.34
68511;SHT31;55512;50.102;19.958;2022-12-07T14:44:18;5.71;67.41
68511;SHT31;55512;50.102;19.958;2022-12-07T14:46:46;5.71;67.56
68511;SHT31;55512;50.102;19.958;2022-12-07T14:49:14;5.70;67.58
68511;SHT31;55512;50.102;19.958;2022-12-07T14:51:40;5.68;67.46
68511;SHT31;55512;50.102;19.958;2022-12-07T14:54:18;5.66;67.39
68511;SHT31;55512;50.102;19.958;2022-12-07T14:56:46;5.64;67.34
68511;SHT31;55512;50.102;19.958;2022-12-07T14:59:16;5.62;67.31
68511;SHT31;55512;50.102;19.958;2022-12-07T15:01:42;5.61;67.39
68511;SHT31;55512;50.102;19.958;2022-12-07T15:04:08;5.63;67.29
68511;SHT31;55512;50.102;19.958;2022-12-07T15:06:33;5.62;67.18
68511;SHT31;55512;50.102;19.958;2022-12-07T15:08:59;5.62;67.30
68511;SHT31;55512;50.102;19.958;2022-12-07T15:11:24;5.61;67.23
68511;SHT31;55512;50.102;19.958;2022-12-07T15:13:50;5.61;67.11
68511;SHT31;55512;50.102;19.958;2022-12-07T15:16:36;5.59;67.18
68511;SHT31;55512;50.102;19.958;2022-12-07T15:19:14;5.56;67.14
68511;SHT31;55512;50.102;19.958;2022-12-07T15:21:50;5.56;67.24
68511;SHT31;55512;50.102;19.958;2022-12-07T15:24:17;5.55;67.35
68511;SHT31;55512;50.102;19.958;2022-12-07T15:26:44;5.57;67.48
68511;SHT31;55512;50.102;19.958;2022-12-07T15:29:10;5.57;67.56
68511;SHT31;55512;50.102;19.958;2022-12-07T15:31:36;5.56;67.57
68511;SHT31;55512;50.102;19.958;2022-12-07T15:34:03;5.55;67.67
68511;SHT31;55512;50.102;19.958;2022-12-07T15:36:30;5.55;67.70
68511;SHT31;55512;50.102;19.958;2022-12-07T15:38:57;5.54;67.78
68511;SHT31;55512;50.102;19.958;2022-12-07T15:41:23;5.55;67.86
68511;SHT31;55512;50.102;19.958;2022-12-07T15:43:49;5.55;67.85
68511;SHT31;55512;50.102;19.958;2022-12-07T15:46:38;5.53;67.86
68511;SHT31;55512;50.102;19.958;2022-12-07T15:49:07;5.53;67.90
68511;SHT31;55512;50.102;19.958;2022-12-07T15:51:37;5.52;67.98
68511;SHT31;55512;50.102;19.958;2022-12-07T15:54:03;5.49;68.07
68511;SHT31;55512;50.102;19.958;2022-12-07T15:56:28;5.46;68.22
68511;SHT31;55512;50.102;19.958;2022-12-07T15:58:55;5.46;68.30
68511;SHT31;55512;50.102;19.958;2022-12-07T16:01:22;5.45;68.31
68511;SHT31;55512;50.102;19.958;2022-12-07T16:03:47;5.45;68.42
68511;SHT31;55512;50.102;19.958;2022-12-07T16:06:17;5.47;68.55
68511;SHT31;55512;50.102;19.958;2022-12-07T16:08:44;5.47;68.59
68511;SHT31;55512;50.102;19.958;2022-12-07T16:11:11;5.46;68.58
68511;SHT31;55512;50.102;19.958;2022-12-07T16:13:38;5.43;68.62
68511;SHT31;55512;50.102;19.958;2022-12-07T16:16:05;5.43;68.70
68511;SHT31;55512;50.102;19.958;2022-12-07T16:18:32;5.41;68.69
68511;SHT31;55512;50.102;19.958;2022-12-07T16:20:58;5.40;68.70
68511;SHT31;55512;50.102;19.958;2022-12-07T16:23:24;5.40;68.70
68511;SHT31;55512;50.102;19.958;2022-12-07T16:25:50;5.39;68.73
68511;SHT31;55512;50.102;19.958;2022-12-07T16:28:15;5.38;68.79
68511;SHT31;55512;50.102;19.958;2022-12-07T16:30:41;5.41;68.79
68511;SHT31;55512;50.102;19.958;2022-12-07T16:33:07;5.42;68.70
68511;SHT31;55512;50.102;19.958;2022-12-07T16:35:32;5.42;68.69
68511;SHT31;55512;50.102;19.958;2022-12-07T16:37:58;5.41;68.70
68511;SHT31;55512;50.102;19.958;2022-12-07T16:40:23;5.42;68.65
68511;SHT31;55512;50.102;19.958;2022-12-07T16:42:49;5.41;68.56
68511;SHT31;55512;50.102;19.958;2022-12-07T16:45:14;5.41;68.55
68511;SHT31;55512;50.102;19.958;2022-12-07T16:47:40;5.41;68.52
68511;SHT31;55512;50.102;19.958;2022-12-07T16:50:06;5.41;68.54
68511;SHT31;55512;50.102;19.958;2022-12-07T16:52:34;5.43;68.51
68511;SHT31;55512;50.102;19.958;2022-12-07T16:55:00;5.44;68.40
68511;SHT31;55512;50.102;19.958;2022-12-07T16:57:25;5.40;68.12
68511;SHT31;55512;50.102;19.958;2022-12-07T16:59:51;5.38;68.01
68511;SHT31;55512;50.102;19.958;2022-12-07T17:02:17;5.37;67.97
68511;SHT31;55512;50.102;19.958;2022-12-07T17:04:44;5.36;67.87
68511;SHT31;55512;50.102;19.958;2022-12-07T17:07:09;5.35;67.70
68511;SHT31;55512;50.102;19.958;2022-12-07T17:09:36;5.32;67.58
68511;SHT31;55512;50.102;19.958;2022-12-07T17:12:02;5.28;67.50
68511;SHT31;55512;50.102;19.958;2022-12-07T17:14:28;5.27;67.51
68511;SHT31;55512;50.102;19.958;2022-12-07T17:17:12;5.25;67.50
68511;SHT31;55512;50.102;19.958;2022-12-07T17:19:37;5.22;67.35
68511;SHT31;55512;50.102;19.958;2022-12-07T17:22:03;5.19;67.24
68511;SHT31;55512;50.102;19.958;2022-12-07T17:24:29;5.18;67.12
68511;SHT31;55512;50.102;19.958;2022-12-07T17:26:55;5.17;67.19
68511;SHT31;55512;50.102;19.958;2022-12-07T17:29:20;5.16;67.17
68511;SHT31;55512;50.102;19.958;2022-12-07T17:31:46;5.15;67.24
68511;SHT31;55512;50.102;19.958;2022-12-07T17:34:13;5.15;67.25
68511;SHT31;55512;50.102;19.958;2022-12-07T17:36:40;5.13;67.16
68511;SHT31;55512;50.102;19.958;2022-12-07T17:39:10;5.13;67.10
68511;SHT31;55512;50.102;19.958;2022-12-07T17:41:40;5.10;67.03
68511;SHT31;55512;50.102;19.958;2022-12-07T17:44:24;5.06;67.07
68511;SHT31;55512;50.102;19.958;2022-12-07T17:46:50;5.03;67.09
68511;SHT31;55512;50.102;19.958;2022-12-07T17:49:26;4.99;67.18
68511;SHT31;55512;50.102;19.958;2022-12-07T17:51:53;4.97;67.11
68511;SHT31;55512;50.102;19.958;2022-12-07T17:54:38;4.94;67.23